HTR127 LPMA-DGAA
Flight info
| Callsign | HTR127 |
|---|---|
| Flight time | 4h 20m |
| Altitude | 35000 |
| Route | GOSGA UQ143 ORTIS N728 MIYEC UG851 DEKET/N0462F370 UG851 BKO UP685 KEMOK KEMOK1B |
| Aircraft | A319/M-SDE2E3FGILORWXYZ/HB1 |
Departure
| Time | 2026-05-07 14:23 |
|---|---|
| Airport | Cristiano Ronaldo International Airport (LPMA) |
Arrival
| Time | 2026-05-07 18:43 |
|---|---|
| Airport | Kotoka International Airport (DGAA) |
| Time | Latitude | Longitude | Altitude | Speed | Heading |
|---|---|---|---|---|---|
| 2026-05-07 14:00 | 32.69410 | -16.77591 | 177 ft | 0 kts | 138° |
| 2026-05-07 14:13 | 32.69412 | -16.77592 | 176 ft | 3 kts | 138° |
| 2026-05-07 14:13 | 32.69426 | -16.77607 | 176 ft | 3 kts | 138° |
| 2026-05-07 14:14 | 32.69440 | -16.77622 | 176 ft | 3 kts | 138° |
| 2026-05-07 14:14 | 32.69456 | -16.77634 | 176 ft | 3 kts | 177° |
| 2026-05-07 14:14 | 32.69474 | -16.77631 | 176 ft | 3 kts | 220° |
| 2026-05-07 14:14 | 32.69479 | -16.77625 | 176 ft | 0 kts | 227° |
| 2026-05-07 14:18 | 32.69473 | -16.77633 | 176 ft | 2 kts | 226° |
| 2026-05-07 14:19 | 32.69456 | -16.77653 | 176 ft | 5 kts | 226° |
| 2026-05-07 14:19 | 32.69430 | -16.77685 | 176 ft | 6 kts | 225° |
| 2026-05-07 14:19 | 32.69400 | -16.77722 | 176 ft | 7 kts | 226° |
| 2026-05-07 14:19 | 32.69366 | -16.77763 | 176 ft | 7 kts | 225° |
| 2026-05-07 14:20 | 32.69325 | -16.77814 | 176 ft | 10 kts | 227° |
| 2026-05-07 14:20 | 32.69288 | -16.77888 | 176 ft | 11 kts | 260° |
| 2026-05-07 14:20 | 32.69287 | -16.77988 | 176 ft | 13 kts | 264° |
| 2026-05-07 14:20 | 32.69245 | -16.78082 | 176 ft | 14 kts | 224° |
| 2026-05-07 14:21 | 32.69170 | -16.78166 | 176 ft | 16 kts | 225° |
| 2026-05-07 14:21 | 32.69086 | -16.78264 | 176 ft | 18 kts | 224° |
| 2026-05-07 14:21 | 32.68991 | -16.78371 | 176 ft | 20 kts | 222° |
| 2026-05-07 14:21 | 32.68889 | -16.78449 | 176 ft | 16 kts | 274° |
| 2026-05-07 14:22 | 32.68935 | -16.78447 | 176 ft | 4 kts | 47° |
| 2026-05-07 14:22 | 32.68938 | -16.78443 | 176 ft | 0 kts | 46° |
| 2026-05-07 14:22 | 32.68962 | -16.78413 | 176 ft | 27 kts | 46° |
| 2026-05-07 14:22 | 32.69290 | -16.78033 | 176 ft | 102 kts | 44° |
| 2026-05-07 14:23 | 32.69950 | -16.77263 | 229 ft | 155 kts | 45° |
| 2026-05-07 14:23 | 32.70717 | -16.76313 | 732 ft | 164 kts | 53° |
| 2026-05-07 14:23 | 32.71103 | -16.75020 | 1300 ft | 171 kts | 86° |
| 2026-05-07 14:23 | 32.70835 | -16.73663 | 1852 ft | 171 kts | 126° |
| 2026-05-07 14:24 | 32.69899 | -16.72815 | 2127 ft | 174 kts | 168° |
| 2026-05-07 14:24 | 32.68696 | -16.72590 | 2560 ft | 178 kts | 176° |
| 2026-05-07 14:24 | 32.67427 | -16.72419 | 2963 ft | 189 kts | 176° |
| 2026-05-07 14:24 | 32.66059 | -16.72234 | 3272 ft | 206 kts | 176° |
| 2026-05-07 14:25 | 32.64574 | -16.72030 | 3574 ft | 224 kts | 175° |
| 2026-05-07 14:25 | 32.62936 | -16.71779 | 3847 ft | 249 kts | 175° |
| 2026-05-07 14:25 | 32.61159 | -16.71507 | 4411 ft | 263 kts | 174° |
| 2026-05-07 14:25 | 32.59316 | -16.71214 | 5159 ft | 270 kts | 174° |
| 2026-05-07 14:26 | 32.57442 | -16.70906 | 5946 ft | 274 kts | 174° |
| 2026-05-07 14:26 | 32.55533 | -16.70591 | 6702 ft | 280 kts | 175° |
| 2026-05-07 14:26 | 32.53598 | -16.70275 | 7464 ft | 282 kts | 175° |
| 2026-05-07 14:26 | 32.51648 | -16.69961 | 8264 ft | 284 kts | 176° |
| 2026-05-07 14:27 | 32.49683 | -16.69646 | 9054 ft | 286 kts | 177° |
| 2026-05-07 14:27 | 32.47703 | -16.69328 | 9827 ft | 289 kts | 177° |
| 2026-05-07 14:27 | 32.45678 | -16.69007 | 10308 ft | 303 kts | 178° |
| 2026-05-07 14:27 | 32.43506 | -16.68674 | 10541 ft | 326 kts | 178° |
| 2026-05-07 14:28 | 32.41177 | -16.68320 | 10682 ft | 349 kts | 177° |
| 2026-05-07 14:28 | 32.38668 | -16.67933 | 10812 ft | 368 kts | 177° |
| 2026-05-07 14:28 | 32.36122 | -16.67533 | 11164 ft | 378 kts | 177° |
| 2026-05-07 14:28 | 32.33501 | -16.67117 | 11697 ft | 382 kts | 177° |
| 2026-05-07 14:29 | 32.30855 | -16.66694 | 12261 ft | 385 kts | 178° |
| 2026-05-07 14:29 | 32.28156 | -16.66260 | 12834 ft | 388 kts | 178° |
| 2026-05-07 14:29 | 32.25499 | -16.65834 | 13387 ft | 392 kts | 178° |
| 2026-05-07 14:29 | 32.22789 | -16.65402 | 13945 ft | 395 kts | 179° |
| 2026-05-07 14:30 | 32.20020 | -16.64964 | 14465 ft | 397 kts | 179° |
| 2026-05-07 14:30 | 32.17277 | -16.64532 | 15021 ft | 399 kts | 179° |
| 2026-05-07 14:30 | 32.14522 | -16.64100 | 15572 ft | 400 kts | 179° |
| 2026-05-07 14:30 | 32.11793 | -16.63674 | 16120 ft | 402 kts | 179° |
| 2026-05-07 14:31 | 32.09009 | -16.63239 | 16658 ft | 404 kts | 179° |
| 2026-05-07 14:31 | 32.06221 | -16.62829 | 17182 ft | 404 kts | 180° |
| 2026-05-07 14:31 | 32.03418 | -16.62490 | 17682 ft | 405 kts | 181° |
| 2026-05-07 14:31 | 32.00606 | -16.62192 | 18227 ft | 405 kts | 182° |
| 2026-05-07 14:32 | 31.97793 | -16.61911 | 18679 ft | 407 kts | 182° |
| 2026-05-07 14:32 | 31.94968 | -16.61628 | 19095 ft | 409 kts | 182° |
| 2026-05-07 14:32 | 31.92127 | -16.61335 | 19503 ft | 411 kts | 182° |
| 2026-05-07 14:32 | 31.89275 | -16.61031 | 19904 ft | 413 kts | 181° |
| 2026-05-07 14:33 | 31.86407 | -16.60718 | 20295 ft | 415 kts | 181° |
| 2026-05-07 14:33 | 31.83531 | -16.60399 | 20678 ft | 417 kts | 181° |
| 2026-05-07 14:33 | 31.80638 | -16.60077 | 21050 ft | 419 kts | 181° |
| 2026-05-07 14:33 | 31.77729 | -16.59753 | 21364 ft | 421 kts | 181° |
| 2026-05-07 14:34 | 31.74801 | -16.59428 | 21693 ft | 423 kts | 181° |
| 2026-05-07 14:34 | 31.71866 | -16.59104 | 22017 ft | 425 kts | 181° |
| 2026-05-07 14:34 | 31.68908 | -16.58778 | 22332 ft | 427 kts | 181° |
| 2026-05-07 14:34 | 31.65939 | -16.58455 | 22643 ft | 429 kts | 182° |
| 2026-05-07 14:35 | 31.62958 | -16.58130 | 22953 ft | 431 kts | 182° |
| 2026-05-07 14:35 | 31.59962 | -16.57802 | 23253 ft | 433 kts | 182° |
| 2026-05-07 14:35 | 31.56954 | -16.57472 | 23549 ft | 435 kts | 182° |
| 2026-05-07 14:35 | 31.53926 | -16.57140 | 23803 ft | 437 kts | 182° |
| 2026-05-07 14:36 | 31.50893 | -16.56809 | 24036 ft | 439 kts | 182° |
| 2026-05-07 14:36 | 31.47839 | -16.56477 | 24264 ft | 441 kts | 182° |
| 2026-05-07 14:36 | 31.44775 | -16.56141 | 24503 ft | 443 kts | 182° |
| 2026-05-07 14:36 | 31.41702 | -16.55803 | 24744 ft | 444 kts | 182° |
| 2026-05-07 14:37 | 31.38622 | -16.55471 | 24982 ft | 445 kts | 182° |
| 2026-05-07 14:37 | 31.32427 | -16.54826 | 25459 ft | 448 kts | 182° |
| 2026-05-07 14:37 | 31.29316 | -16.54511 | 25706 ft | 449 kts | 182° |
| 2026-05-07 14:38 | 31.26197 | -16.54196 | 25872 ft | 451 kts | 182° |
| 2026-05-07 14:38 | 31.23067 | -16.53880 | 26075 ft | 453 kts | 182° |
| 2026-05-07 14:38 | 31.19922 | -16.53560 | 26304 ft | 454 kts | 182° |
| 2026-05-07 14:38 | 31.16773 | -16.53236 | 26615 ft | 453 kts | 182° |
| 2026-05-07 14:39 | 31.13632 | -16.52913 | 26931 ft | 453 kts | 182° |
| 2026-05-07 14:39 | 31.10501 | -16.52592 | 27246 ft | 452 kts | 182° |
| 2026-05-07 14:39 | 31.07370 | -16.52270 | 27565 ft | 451 kts | 183° |
| 2026-05-07 14:39 | 31.04242 | -16.51946 | 27891 ft | 451 kts | 183° |
| 2026-05-07 14:40 | 31.01117 | -16.51620 | 28232 ft | 450 kts | 183° |
| 2026-05-07 14:40 | 30.98006 | -16.51297 | 28524 ft | 450 kts | 183° |
| 2026-05-07 14:40 | 30.94883 | -16.50977 | 28794 ft | 450 kts | 183° |
| 2026-05-07 14:40 | 30.91760 | -16.50658 | 29105 ft | 450 kts | 183° |
| 2026-05-07 14:41 | 30.88642 | -16.50338 | 29440 ft | 450 kts | 183° |
| 2026-05-07 14:41 | 30.85520 | -16.50022 | 29786 ft | 449 kts | 183° |
| 2026-05-07 14:41 | 30.82409 | -16.49707 | 30120 ft | 449 kts | 183° |
| 2026-05-07 14:41 | 30.79297 | -16.49392 | 30412 ft | 449 kts | 184° |
| 2026-05-07 14:42 | 30.76189 | -16.49080 | 30711 ft | 448 kts | 184° |
| 2026-05-07 14:42 | 30.73089 | -16.48766 | 30969 ft | 447 kts | 184° |
| 2026-05-07 14:42 | 30.69987 | -16.48447 | 31201 ft | 448 kts | 184° |
| 2026-05-07 14:42 | 30.66874 | -16.48130 | 31433 ft | 449 kts | 184° |
| 2026-05-07 14:43 | 30.63761 | -16.47812 | 31705 ft | 449 kts | 184° |
| 2026-05-07 14:43 | 30.61661 | -16.47596 | 31902 ft | 449 kts | 184° |
| 2026-05-07 14:43 | 30.58549 | -16.47277 | 32200 ft | 448 kts | 184° |
| 2026-05-07 14:43 | 30.55448 | -16.46956 | 32505 ft | 447 kts | 184° |
| 2026-05-07 14:44 | 30.52347 | -16.46636 | 32816 ft | 446 kts | 185° |
| 2026-05-07 14:44 | 30.49259 | -16.46323 | 33127 ft | 446 kts | 185° |
| 2026-05-07 14:44 | 30.46173 | -16.46014 | 33381 ft | 445 kts | 185° |
| 2026-05-07 14:44 | 30.43083 | -16.45704 | 33622 ft | 446 kts | 185° |
| 2026-05-07 14:45 | 30.39992 | -16.45394 | 33868 ft | 446 kts | 185° |
| 2026-05-07 14:45 | 30.36898 | -16.45084 | 34143 ft | 446 kts | 185° |
| 2026-05-07 14:45 | 30.33810 | -16.44773 | 34395 ft | 446 kts | 185° |
| 2026-05-07 14:45 | 30.30720 | -16.44461 | 34630 ft | 446 kts | 185° |
| 2026-05-07 14:46 | 30.27625 | -16.44148 | 34868 ft | 446 kts | 185° |
| 2026-05-07 14:46 | 30.24528 | -16.43833 | 35018 ft | 447 kts | 185° |
| 2026-05-07 14:46 | 30.18326 | -16.43210 | 35022 ft | 448 kts | 185° |
| 2026-05-07 14:47 | 30.12105 | -16.42586 | 35056 ft | 449 kts | 185° |
| 2026-05-07 14:47 | 30.05867 | -16.41958 | 35057 ft | 450 kts | 185° |
| 2026-05-07 14:48 | 29.99633 | -16.41331 | 35054 ft | 450 kts | 185° |
| 2026-05-07 14:48 | 29.93398 | -16.40704 | 35053 ft | 450 kts | 185° |
| 2026-05-07 14:49 | 29.87162 | -16.40088 | 35029 ft | 452 kts | 185° |
| 2026-05-07 14:49 | 29.80891 | -16.39462 | 35036 ft | 452 kts | 185° |
| 2026-05-07 14:50 | 29.74622 | -16.38830 | 35038 ft | 452 kts | 185° |
| 2026-05-07 14:50 | 29.68350 | -16.38201 | 35046 ft | 452 kts | 185° |
| 2026-05-07 14:51 | 29.62078 | -16.37575 | 35047 ft | 452 kts | 185° |
| 2026-05-07 14:51 | 29.55803 | -16.36956 | 35044 ft | 452 kts | 185° |
| 2026-05-07 14:52 | 29.49537 | -16.36336 | 35044 ft | 452 kts | 185° |
| 2026-05-07 14:52 | 29.43275 | -16.35716 | 35041 ft | 452 kts | 185° |
| 2026-05-07 14:53 | 29.37006 | -16.35083 | 35011 ft | 452 kts | 185° |
| 2026-05-07 14:53 | 29.30740 | -16.34456 | 35016 ft | 453 kts | 184° |
| 2026-05-07 14:54 | 29.24445 | -16.33837 | 35020 ft | 454 kts | 184° |
| 2026-05-07 14:54 | 29.18139 | -16.33219 | 35026 ft | 455 kts | 184° |
| 2026-05-07 14:55 | 29.11819 | -16.32591 | 35034 ft | 456 kts | 184° |
| 2026-05-07 14:55 | 29.05493 | -16.31961 | 35007 ft | 457 kts | 184° |
| 2026-05-07 14:56 | 28.99147 | -16.31332 | 35015 ft | 458 kts | 184° |
| 2026-05-07 14:56 | 28.92791 | -16.30708 | 35021 ft | 459 kts | 184° |
| 2026-05-07 14:57 | 28.86428 | -16.30087 | 35027 ft | 459 kts | 184° |
| 2026-05-07 14:57 | 28.80054 | -16.29460 | 35004 ft | 459 kts | 184° |
| 2026-05-07 14:58 | 28.73678 | -16.28833 | 35019 ft | 460 kts | 184° |
| 2026-05-07 14:58 | 28.67291 | -16.28209 | 35031 ft | 461 kts | 184° |
| 2026-05-07 14:59 | 28.60904 | -16.27585 | 35039 ft | 461 kts | 184° |
| 2026-05-07 14:59 | 28.54516 | -16.26469 | 35008 ft | 475 kts | 171° |
| 2026-05-07 15:00 | 28.51408 | -16.25100 | 35024 ft | 485 kts | 160° |
| 2026-05-07 15:00 | 28.48462 | -16.23162 | 35033 ft | 492 kts | 154° |
| 2026-05-07 15:00 | 28.42663 | -16.18995 | 35040 ft | 493 kts | 154° |
| 2026-05-07 15:01 | 28.36852 | -16.14863 | 35038 ft | 492 kts | 154° |
| 2026-05-07 15:01 | 28.31038 | -16.10754 | 35038 ft | 492 kts | 154° |
| 2026-05-07 15:02 | 28.25240 | -16.06637 | 35003 ft | 492 kts | 154° |
| 2026-05-07 15:02 | 28.19447 | -16.02514 | 35012 ft | 492 kts | 154° |
| 2026-05-07 15:03 | 28.13640 | -15.98402 | 35025 ft | 492 kts | 154° |
| 2026-05-07 15:03 | 28.07832 | -15.94306 | 35029 ft | 491 kts | 154° |
| 2026-05-07 15:04 | 28.02075 | -15.90241 | 35025 ft | 491 kts | 154° |
| 2026-05-07 15:04 | 27.96239 | -15.86121 | 35000 ft | 491 kts | 154° |
| 2026-05-07 15:05 | 27.90443 | -15.82038 | 35011 ft | 491 kts | 154° |
| 2026-05-07 15:05 | 27.84676 | -15.77979 | 35009 ft | 491 kts | 154° |
| 2026-05-07 15:06 | 27.78875 | -15.73908 | 35010 ft | 491 kts | 154° |
| 2026-05-07 15:06 | 27.73070 | -15.69835 | 34992 ft | 491 kts | 154° |
| 2026-05-07 15:07 | 27.67247 | -15.65814 | 35000 ft | 490 kts | 155° |
| 2026-05-07 15:07 | 27.61350 | -15.61877 | 35004 ft | 489 kts | 156° |
| 2026-05-07 15:08 | 27.55483 | -15.57987 | 35003 ft | 490 kts | 156° |
| 2026-05-07 15:08 | 27.49617 | -15.54074 | 35004 ft | 490 kts | 155° |
| 2026-05-07 15:09 | 27.43757 | -15.50140 | 34983 ft | 491 kts | 155° |
| 2026-05-07 15:09 | 27.37893 | -15.46199 | 34992 ft | 491 kts | 155° |
| 2026-05-07 15:10 | 27.32021 | -15.42270 | 34997 ft | 491 kts | 155° |
| 2026-05-07 15:10 | 27.26139 | -15.38354 | 35001 ft | 491 kts | 155° |
| 2026-05-07 15:11 | 27.20261 | -15.34437 | 34984 ft | 491 kts | 155° |
| 2026-05-07 15:11 | 27.14379 | -15.30528 | 34992 ft | 492 kts | 155° |
| 2026-05-07 15:12 | 27.08485 | -15.26610 | 35000 ft | 492 kts | 155° |
| 2026-05-07 15:12 | 27.02595 | -15.22691 | 35005 ft | 492 kts | 155° |
| 2026-05-07 15:13 | 26.96701 | -15.18782 | 35007 ft | 492 kts | 155° |
| 2026-05-07 15:13 | 26.90813 | -15.14883 | 35008 ft | 492 kts | 155° |
| 2026-05-07 15:14 | 26.84915 | -15.10994 | 35014 ft | 492 kts | 155° |
| 2026-05-07 15:14 | 26.79024 | -15.07102 | 35007 ft | 492 kts | 155° |
| 2026-05-07 15:15 | 26.73137 | -15.03215 | 35008 ft | 492 kts | 155° |
| 2026-05-07 15:15 | 26.67234 | -14.99331 | 35008 ft | 492 kts | 155° |
| 2026-05-07 15:16 | 26.61334 | -14.95451 | 35004 ft | 492 kts | 155° |
| 2026-05-07 15:16 | 26.55435 | -14.91575 | 34994 ft | 492 kts | 155° |
| 2026-05-07 15:17 | 26.49534 | -14.87702 | 35004 ft | 492 kts | 155° |
| 2026-05-07 15:17 | 26.43626 | -14.83832 | 35002 ft | 492 kts | 155° |
| 2026-05-07 15:18 | 26.37716 | -14.79964 | 34984 ft | 492 kts | 155° |
| 2026-05-07 15:18 | 26.31815 | -14.76089 | 34997 ft | 492 kts | 154° |
| 2026-05-07 15:19 | 26.26910 | -14.72876 | 34999 ft | 492 kts | 154° |
| 2026-05-07 15:19 | 26.21002 | -14.69011 | 35002 ft | 492 kts | 155° |
| 2026-05-07 15:20 | 26.15089 | -14.65163 | 35006 ft | 492 kts | 155° |
| 2026-05-07 15:20 | 26.09211 | -14.61247 | 34979 ft | 493 kts | 153° |
| 2026-05-07 15:21 | 26.03407 | -14.57161 | 34999 ft | 494 kts | 152° |
| 2026-05-07 15:21 | 25.97617 | -14.53061 | 34996 ft | 493 kts | 152° |
| 2026-05-07 15:22 | 25.91806 | -14.49012 | 34997 ft | 493 kts | 153° |
| 2026-05-07 15:22 | 25.85979 | -14.44983 | 34989 ft | 493 kts | 153° |
| 2026-05-07 15:23 | 25.80162 | -14.40954 | 34975 ft | 493 kts | 152° |
| 2026-05-07 15:23 | 25.74344 | -14.36929 | 34972 ft | 493 kts | 152° |
| 2026-05-07 15:24 | 25.68531 | -14.32912 | 34968 ft | 492 kts | 152° |
| 2026-05-07 15:24 | 25.62713 | -14.28894 | 34964 ft | 492 kts | 152° |
| 2026-05-07 15:25 | 25.56900 | -14.24879 | 34961 ft | 492 kts | 153° |
| 2026-05-07 15:25 | 25.51085 | -14.20878 | 34942 ft | 492 kts | 152° |
| 2026-05-07 15:26 | 25.45273 | -14.16877 | 34945 ft | 492 kts | 152° |
| 2026-05-07 15:26 | 25.39459 | -14.12881 | 34940 ft | 492 kts | 152° |
| 2026-05-07 15:27 | 25.33647 | -14.08889 | 34940 ft | 492 kts | 152° |
| 2026-05-07 15:27 | 25.27834 | -14.04907 | 34935 ft | 491 kts | 152° |
| 2026-05-07 15:28 | 25.22019 | -14.00929 | 34920 ft | 491 kts | 152° |
| 2026-05-07 15:28 | 25.16210 | -13.96954 | 34919 ft | 491 kts | 152° |
| 2026-05-07 15:29 | 25.10398 | -13.92981 | 34924 ft | 491 kts | 152° |
| 2026-05-07 15:29 | 25.04584 | -13.89009 | 34926 ft | 491 kts | 152° |
| 2026-05-07 15:30 | 24.98728 | -13.85021 | 34910 ft | 491 kts | 152° |
| 2026-05-07 15:30 | 24.92951 | -13.81085 | 34913 ft | 491 kts | 152° |
| 2026-05-07 15:31 | 24.87095 | -13.77102 | 34919 ft | 491 kts | 152° |
| 2026-05-07 15:31 | 24.81315 | -13.73163 | 34920 ft | 491 kts | 152° |
| 2026-05-07 15:32 | 24.75497 | -13.69211 | 34919 ft | 491 kts | 152° |
| 2026-05-07 15:32 | 24.69681 | -13.65274 | 34905 ft | 491 kts | 152° |
| 2026-05-07 15:33 | 24.63821 | -13.61320 | 34909 ft | 491 kts | 152° |
| 2026-05-07 15:33 | 24.58045 | -13.57408 | 34909 ft | 490 kts | 152° |
| 2026-05-07 15:34 | 24.52240 | -13.53477 | 34910 ft | 490 kts | 152° |
| 2026-05-07 15:34 | 24.46437 | -13.49545 | 34909 ft | 490 kts | 152° |
| 2026-05-07 15:35 | 24.40633 | -13.45636 | 34897 ft | 489 kts | 152° |
| 2026-05-07 15:35 | 24.34830 | -13.41731 | 34886 ft | 489 kts | 152° |
| 2026-05-07 15:36 | 24.29033 | -13.37835 | 34898 ft | 489 kts | 152° |
| 2026-05-07 15:36 | 24.23237 | -13.33941 | 34902 ft | 489 kts | 152° |
| 2026-05-07 15:37 | 24.17441 | -13.30040 | 34893 ft | 489 kts | 152° |
| 2026-05-07 15:37 | 24.11644 | -13.26152 | 34894 ft | 488 kts | 152° |
| 2026-05-07 15:38 | 24.05807 | -13.22247 | 34880 ft | 488 kts | 152° |
| 2026-05-07 15:38 | 24.00011 | -13.18362 | 34884 ft | 489 kts | 152° |
| 2026-05-07 15:39 | 23.94249 | -13.14507 | 34885 ft | 489 kts | 152° |
| 2026-05-07 15:39 | 23.88443 | -13.10627 | 34890 ft | 489 kts | 152° |
| 2026-05-07 15:40 | 23.82600 | -13.06728 | 34884 ft | 489 kts | 152° |
| 2026-05-07 15:40 | 23.76797 | -13.02861 | 34876 ft | 488 kts | 153° |
| 2026-05-07 15:41 | 23.70995 | -12.99001 | 34880 ft | 488 kts | 153° |
| 2026-05-07 15:41 | 23.65100 | -12.95374 | 34879 ft | 485 kts | 157° |
| 2026-05-07 15:42 | 23.59057 | -12.92107 | 34875 ft | 484 kts | 159° |
| 2026-05-07 15:42 | 23.53003 | -12.88876 | 34870 ft | 485 kts | 158° |
| 2026-05-07 15:43 | 23.46989 | -12.85558 | 34853 ft | 485 kts | 157° |
| 2026-05-07 15:43 | 23.40995 | -12.82192 | 34857 ft | 484 kts | 157° |
| 2026-05-07 15:44 | 23.35040 | -12.78859 | 34861 ft | 484 kts | 157° |
| 2026-05-07 15:44 | 23.29002 | -12.75507 | 34865 ft | 484 kts | 158° |
| 2026-05-07 15:45 | 23.23003 | -12.72190 | 34867 ft | 483 kts | 158° |
| 2026-05-07 15:45 | 23.17012 | -12.68880 | 34847 ft | 482 kts | 158° |
| 2026-05-07 15:46 | 23.08051 | -12.63924 | 34847 ft | 481 kts | 158° |
| 2026-05-07 15:47 | 23.02083 | -12.60622 | 34851 ft | 481 kts | 158° |
| 2026-05-07 15:47 | 22.96118 | -12.57323 | 34844 ft | 481 kts | 158° |
| 2026-05-07 15:48 | 22.90152 | -12.54037 | 34834 ft | 481 kts | 158° |
| 2026-05-07 15:48 | 22.84195 | -12.50752 | 34834 ft | 481 kts | 158° |
| 2026-05-07 15:49 | 22.78231 | -12.47464 | 34838 ft | 480 kts | 158° |
| 2026-05-07 15:49 | 22.72235 | -12.44288 | 34828 ft | 478 kts | 161° |
| 2026-05-07 15:50 | 22.66145 | -12.41430 | 34829 ft | 477 kts | 163° |
| 2026-05-07 15:50 | 22.60023 | -12.38648 | 34818 ft | 477 kts | 163° |
| 2026-05-07 15:51 | 22.53934 | -12.35812 | 34838 ft | 477 kts | 162° |
| 2026-05-07 15:51 | 22.47864 | -12.32923 | 34840 ft | 477 kts | 162° |
| 2026-05-07 15:52 | 22.41803 | -12.30032 | 34840 ft | 476 kts | 162° |
| 2026-05-07 15:52 | 22.35735 | -12.27165 | 34835 ft | 475 kts | 162° |
| 2026-05-07 15:53 | 22.29672 | -12.24308 | 34814 ft | 475 kts | 163° |
| 2026-05-07 15:53 | 22.23610 | -12.21456 | 34820 ft | 475 kts | 163° |
| 2026-05-07 15:54 | 22.17545 | -12.18600 | 34821 ft | 475 kts | 163° |
| 2026-05-07 15:54 | 22.11481 | -12.15757 | 34820 ft | 476 kts | 163° |
| 2026-05-07 15:55 | 22.05410 | -12.12906 | 34822 ft | 476 kts | 163° |
| 2026-05-07 15:55 | 21.99344 | -12.10053 | 34808 ft | 476 kts | 163° |
| 2026-05-07 15:56 | 21.93280 | -12.07200 | 34809 ft | 475 kts | 163° |
| 2026-05-07 15:56 | 21.87216 | -12.04360 | 34813 ft | 476 kts | 163° |
| 2026-05-07 15:57 | 21.82162 | -12.01995 | 34814 ft | 476 kts | 163° |
| 2026-05-07 15:57 | 21.76094 | -11.99160 | 34816 ft | 476 kts | 163° |
| 2026-05-07 15:58 | 21.70016 | -11.96324 | 34820 ft | 476 kts | 163° |
| 2026-05-07 15:58 | 21.63950 | -11.93481 | 34808 ft | 475 kts | 164° |
| 2026-05-07 15:59 | 21.57896 | -11.90656 | 34816 ft | 474 kts | 164° |
| 2026-05-07 15:59 | 21.51841 | -11.87828 | 34817 ft | 474 kts | 164° |
| 2026-05-07 16:00 | 21.45791 | -11.85011 | 34817 ft | 474 kts | 164° |
| 2026-05-07 16:00 | 21.39746 | -11.82206 | 34818 ft | 474 kts | 164° |
| 2026-05-07 16:01 | 21.33695 | -11.79401 | 34814 ft | 473 kts | 165° |
| 2026-05-07 16:01 | 21.27661 | -11.76595 | 34830 ft | 472 kts | 165° |
| 2026-05-07 16:02 | 21.21639 | -11.73790 | 34832 ft | 471 kts | 165° |
| 2026-05-07 16:02 | 21.15628 | -11.70997 | 34831 ft | 471 kts | 165° |
| 2026-05-07 16:03 | 21.09613 | -11.68218 | 34825 ft | 470 kts | 165° |
| 2026-05-07 16:03 | 21.03606 | -11.65441 | 34826 ft | 470 kts | 165° |
| 2026-05-07 16:04 | 20.97601 | -11.62672 | 34815 ft | 470 kts | 165° |
| 2026-05-07 16:04 | 20.91595 | -11.59904 | 34810 ft | 470 kts | 165° |
| 2026-05-07 16:05 | 20.85593 | -11.57137 | 34802 ft | 470 kts | 165° |
| 2026-05-07 16:05 | 20.79584 | -11.54355 | 34804 ft | 470 kts | 165° |
| 2026-05-07 16:06 | 20.73582 | -11.51592 | 34782 ft | 470 kts | 165° |
| 2026-05-07 16:06 | 20.67591 | -11.48828 | 34813 ft | 468 kts | 165° |
| 2026-05-07 16:07 | 20.61620 | -11.46076 | 34822 ft | 467 kts | 165° |
| 2026-05-07 16:07 | 20.55660 | -11.43339 | 34823 ft | 466 kts | 166° |
| 2026-05-07 16:08 | 20.49715 | -11.40605 | 34821 ft | 465 kts | 165° |
| 2026-05-07 16:08 | 20.43760 | -11.37874 | 34819 ft | 465 kts | 166° |
| 2026-05-07 16:09 | 20.37827 | -11.35165 | 34805 ft | 464 kts | 166° |
| 2026-05-07 16:09 | 20.31898 | -11.32446 | 34811 ft | 463 kts | 166° |
| 2026-05-07 16:10 | 20.25982 | -11.29740 | 34809 ft | 462 kts | 166° |
| 2026-05-07 16:10 | 20.20072 | -11.27035 | 34810 ft | 462 kts | 166° |
| 2026-05-07 16:11 | 20.14127 | -11.24314 | 34809 ft | 462 kts | 166° |
| 2026-05-07 16:11 | 20.08250 | -11.21635 | 34796 ft | 462 kts | 167° |
| 2026-05-07 16:12 | 20.02358 | -11.18949 | 34816 ft | 460 kts | 167° |
| 2026-05-07 16:12 | 19.96450 | -11.16252 | 34821 ft | 459 kts | 167° |
| 2026-05-07 16:13 | 19.90588 | -11.13584 | 34824 ft | 458 kts | 167° |
| 2026-05-07 16:13 | 19.84730 | -11.10929 | 34818 ft | 457 kts | 167° |
| 2026-05-07 16:14 | 19.78888 | -11.08281 | 34784 ft | 457 kts | 167° |
| 2026-05-07 16:14 | 19.73045 | -11.05629 | 34795 ft | 456 kts | 168° |
| 2026-05-07 16:15 | 19.67224 | -11.02981 | 34798 ft | 455 kts | 168° |
| 2026-05-07 16:15 | 19.61397 | -11.00341 | 34800 ft | 455 kts | 169° |
| 2026-05-07 16:16 | 19.55572 | -10.97705 | 34800 ft | 455 kts | 169° |
| 2026-05-07 16:16 | 19.49755 | -10.95066 | 34800 ft | 455 kts | 168° |
| 2026-05-07 16:17 | 19.43929 | -10.92431 | 34773 ft | 455 kts | 167° |
| 2026-05-07 16:17 | 19.38092 | -10.89795 | 34774 ft | 457 kts | 167° |
| 2026-05-07 16:18 | 19.32244 | -10.87150 | 34782 ft | 458 kts | 167° |
| 2026-05-07 16:18 | 19.26377 | -10.84514 | 34791 ft | 458 kts | 167° |
| 2026-05-07 16:19 | 19.20511 | -10.81873 | 34793 ft | 458 kts | 167° |
| 2026-05-07 16:19 | 19.14649 | -10.79225 | 34793 ft | 458 kts | 167° |
| 2026-05-07 16:20 | 19.08777 | -10.76585 | 34773 ft | 458 kts | 167° |
| 2026-05-07 16:20 | 19.02904 | -10.73947 | 34778 ft | 459 kts | 167° |
| 2026-05-07 16:21 | 18.97029 | -10.71305 | 34795 ft | 459 kts | 167° |
| 2026-05-07 16:21 | 18.91147 | -10.68659 | 34797 ft | 459 kts | 167° |
| 2026-05-07 16:22 | 18.85265 | -10.66020 | 34796 ft | 459 kts | 167° |
| 2026-05-07 16:22 | 18.79383 | -10.63385 | 34768 ft | 459 kts | 167° |
| 2026-05-07 16:23 | 18.73494 | -10.60740 | 34774 ft | 461 kts | 167° |
| 2026-05-07 16:23 | 18.67574 | -10.58089 | 34773 ft | 463 kts | 167° |
| 2026-05-07 16:24 | 18.61646 | -10.55440 | 34778 ft | 463 kts | 167° |
| 2026-05-07 16:24 | 18.55706 | -10.52788 | 34782 ft | 463 kts | 167° |
| 2026-05-07 16:25 | 18.49774 | -10.50136 | 34776 ft | 464 kts | 167° |
| 2026-05-07 16:25 | 18.43837 | -10.47483 | 34757 ft | 463 kts | 167° |
| 2026-05-07 16:26 | 18.37900 | -10.44840 | 34769 ft | 463 kts | 167° |
| 2026-05-07 16:26 | 18.31955 | -10.42192 | 34770 ft | 464 kts | 167° |
| 2026-05-07 16:27 | 18.26019 | -10.39547 | 34771 ft | 463 kts | 167° |
| 2026-05-07 16:27 | 18.20079 | -10.36896 | 34777 ft | 463 kts | 167° |
| 2026-05-07 16:27 | 18.17117 | -10.35577 | 34883 ft | 463 kts | 167° |
| 2026-05-07 16:28 | 18.14146 | -10.34254 | 34976 ft | 463 kts | 167° |
| 2026-05-07 16:28 | 18.11180 | -10.32936 | 35095 ft | 463 kts | 167° |
| 2026-05-07 16:28 | 18.08216 | -10.31619 | 35210 ft | 462 kts | 167° |
| 2026-05-07 16:28 | 18.05258 | -10.30302 | 35335 ft | 462 kts | 167° |
| 2026-05-07 16:29 | 18.02297 | -10.28991 | 35446 ft | 461 kts | 167° |
| 2026-05-07 16:29 | 17.99344 | -10.27683 | 35561 ft | 460 kts | 167° |
| 2026-05-07 16:29 | 17.96398 | -10.26378 | 35680 ft | 460 kts | 167° |
| 2026-05-07 16:29 | 17.93450 | -10.25071 | 35799 ft | 459 kts | 167° |
| 2026-05-07 16:30 | 17.90513 | -10.23768 | 35919 ft | 459 kts | 167° |
| 2026-05-07 16:30 | 17.87578 | -10.22467 | 36040 ft | 458 kts | 167° |
| 2026-05-07 16:30 | 17.84648 | -10.21164 | 36161 ft | 457 kts | 167° |
| 2026-05-07 16:30 | 17.81712 | -10.19861 | 36283 ft | 457 kts | 167° |
| 2026-05-07 16:31 | 17.78791 | -10.18569 | 36401 ft | 456 kts | 167° |
| 2026-05-07 16:31 | 17.75869 | -10.17278 | 36524 ft | 455 kts | 167° |
| 2026-05-07 16:31 | 17.72955 | -10.15989 | 36669 ft | 454 kts | 167° |
| 2026-05-07 16:32 | 17.67128 | -10.13411 | 36778 ft | 454 kts | 167° |
| 2026-05-07 16:32 | 17.61310 | -10.10843 | 36775 ft | 453 kts | 167° |
| 2026-05-07 16:33 | 17.55495 | -10.08276 | 36777 ft | 453 kts | 167° |
| 2026-05-07 16:33 | 17.49687 | -10.05710 | 36778 ft | 453 kts | 167° |
| 2026-05-07 16:34 | 17.43863 | -10.03145 | 36777 ft | 455 kts | 166° |
| 2026-05-07 16:34 | 17.38029 | -10.00567 | 36774 ft | 455 kts | 166° |
| 2026-05-07 16:35 | 17.32190 | -9.97990 | 36771 ft | 455 kts | 166° |
| 2026-05-07 16:35 | 17.27300 | -9.95841 | 36771 ft | 455 kts | 166° |
| 2026-05-07 16:36 | 17.21459 | -9.93275 | 36766 ft | 455 kts | 166° |
| 2026-05-07 16:36 | 17.15622 | -9.90711 | 36768 ft | 455 kts | 166° |
| 2026-05-07 16:37 | 17.09778 | -9.88145 | 36766 ft | 456 kts | 165° |
| 2026-05-07 16:37 | 17.03922 | -9.85566 | 36766 ft | 457 kts | 165° |
| 2026-05-07 16:38 | 16.98058 | -9.82997 | 36763 ft | 457 kts | 165° |
| 2026-05-07 16:38 | 16.92194 | -9.80429 | 36767 ft | 457 kts | 165° |
| 2026-05-07 16:39 | 16.86325 | -9.77858 | 36764 ft | 457 kts | 165° |
| 2026-05-07 16:39 | 16.80454 | -9.75293 | 36751 ft | 458 kts | 165° |
| 2026-05-07 16:40 | 16.74563 | -9.72713 | 36761 ft | 460 kts | 165° |
| 2026-05-07 16:40 | 16.68671 | -9.70136 | 36762 ft | 460 kts | 165° |
| 2026-05-07 16:41 | 16.62769 | -9.67559 | 36753 ft | 460 kts | 165° |
| 2026-05-07 16:41 | 16.56870 | -9.64983 | 36755 ft | 460 kts | 165° |
| 2026-05-07 16:42 | 16.50965 | -9.62406 | 36754 ft | 460 kts | 165° |
| 2026-05-07 16:42 | 16.45062 | -9.59821 | 36752 ft | 461 kts | 164° |
| 2026-05-07 16:43 | 16.39136 | -9.57239 | 36750 ft | 462 kts | 165° |
| 2026-05-07 16:43 | 16.33207 | -9.54663 | 36750 ft | 462 kts | 165° |
| 2026-05-07 16:44 | 16.27275 | -9.52089 | 36746 ft | 462 kts | 165° |
| 2026-05-07 16:44 | 16.21345 | -9.49505 | 36748 ft | 462 kts | 165° |
| 2026-05-07 16:45 | 16.15408 | -9.46935 | 36751 ft | 462 kts | 165° |
| 2026-05-07 16:45 | 16.09468 | -9.44371 | 36743 ft | 462 kts | 164° |
| 2026-05-07 16:46 | 16.03532 | -9.41793 | 36742 ft | 463 kts | 164° |
| 2026-05-07 16:46 | 15.97544 | -9.39189 | 36740 ft | 463 kts | 164° |
| 2026-05-07 16:47 | 15.91601 | -9.36610 | 36752 ft | 463 kts | 164° |
| 2026-05-07 16:47 | 15.85648 | -9.34024 | 36740 ft | 463 kts | 164° |
| 2026-05-07 16:48 | 15.79694 | -9.31451 | 36742 ft | 463 kts | 164° |
| 2026-05-07 16:48 | 15.73742 | -9.28886 | 36738 ft | 464 kts | 164° |
| 2026-05-07 16:49 | 15.67781 | -9.26311 | 36732 ft | 464 kts | 164° |
| 2026-05-07 16:49 | 15.61825 | -9.23731 | 36740 ft | 464 kts | 164° |
| 2026-05-07 16:50 | 15.55856 | -9.21152 | 36742 ft | 464 kts | 164° |
| 2026-05-07 16:50 | 15.49890 | -9.18578 | 36742 ft | 464 kts | 164° |
| 2026-05-07 16:51 | 15.43927 | -9.16007 | 36723 ft | 465 kts | 164° |
| 2026-05-07 16:51 | 15.37908 | -9.13419 | 36722 ft | 466 kts | 164° |
| 2026-05-07 16:52 | 15.31920 | -9.10841 | 36723 ft | 466 kts | 164° |
| 2026-05-07 16:52 | 15.25920 | -9.08253 | 36709 ft | 467 kts | 163° |
| 2026-05-07 16:53 | 15.19921 | -9.05665 | 36715 ft | 467 kts | 163° |
| 2026-05-07 16:53 | 15.13911 | -9.03086 | 36717 ft | 468 kts | 163° |
| 2026-05-07 16:54 | 15.07895 | -9.00504 | 36706 ft | 468 kts | 163° |
| 2026-05-07 16:54 | 15.01875 | -8.97912 | 36713 ft | 469 kts | 163° |
| 2026-05-07 16:55 | 14.95852 | -8.95328 | 36725 ft | 469 kts | 163° |
| 2026-05-07 16:55 | 14.89822 | -8.92741 | 36725 ft | 469 kts | 163° |
| 2026-05-07 16:56 | 14.83794 | -8.90153 | 36723 ft | 469 kts | 163° |
| 2026-05-07 16:56 | 14.74746 | -8.86283 | 36714 ft | 469 kts | 163° |
| 2026-05-07 16:57 | 14.68719 | -8.83709 | 36724 ft | 469 kts | 163° |
| 2026-05-07 16:57 | 14.62689 | -8.81123 | 36728 ft | 469 kts | 163° |
| 2026-05-07 16:58 | 14.56666 | -8.78548 | 36728 ft | 469 kts | 163° |
| 2026-05-07 16:58 | 14.50643 | -8.75971 | 36730 ft | 469 kts | 163° |
| 2026-05-07 16:59 | 14.44615 | -8.73396 | 36728 ft | 469 kts | 163° |
| 2026-05-07 16:59 | 14.38598 | -8.70823 | 36724 ft | 468 kts | 163° |
| 2026-05-07 17:00 | 14.32569 | -8.68251 | 36728 ft | 468 kts | 163° |
| 2026-05-07 17:00 | 14.26543 | -8.65688 | 36727 ft | 469 kts | 163° |
| 2026-05-07 17:01 | 14.20518 | -8.63114 | 36729 ft | 469 kts | 163° |
| 2026-05-07 17:01 | 14.14491 | -8.60543 | 36733 ft | 469 kts | 163° |
| 2026-05-07 17:02 | 14.08457 | -8.57980 | 36731 ft | 469 kts | 163° |
| 2026-05-07 17:02 | 14.02422 | -8.55420 | 36733 ft | 469 kts | 162° |
| 2026-05-07 17:03 | 13.96389 | -8.52847 | 36732 ft | 469 kts | 162° |
| 2026-05-07 17:03 | 13.90353 | -8.50280 | 36742 ft | 469 kts | 162° |
| 2026-05-07 17:04 | 13.84317 | -8.47711 | 36742 ft | 469 kts | 162° |
| 2026-05-07 17:04 | 13.78278 | -8.45153 | 36744 ft | 469 kts | 162° |
| 2026-05-07 17:05 | 13.72240 | -8.42593 | 36744 ft | 469 kts | 162° |
| 2026-05-07 17:05 | 13.66206 | -8.40030 | 36738 ft | 469 kts | 162° |
| 2026-05-07 17:06 | 13.60165 | -8.37457 | 36756 ft | 469 kts | 162° |
| 2026-05-07 17:06 | 13.54133 | -8.34899 | 36759 ft | 469 kts | 162° |
| 2026-05-07 17:07 | 13.48093 | -8.32348 | 36756 ft | 469 kts | 162° |
| 2026-05-07 17:07 | 13.42062 | -8.29799 | 36759 ft | 469 kts | 162° |
| 2026-05-07 17:08 | 13.36027 | -8.27241 | 36764 ft | 469 kts | 162° |
| 2026-05-07 17:08 | 13.29993 | -8.24685 | 36759 ft | 469 kts | 162° |
| 2026-05-07 17:09 | 13.23960 | -8.22141 | 36760 ft | 469 kts | 162° |
| 2026-05-07 17:09 | 13.17930 | -8.19598 | 36773 ft | 469 kts | 162° |
| 2026-05-07 17:10 | 13.11884 | -8.17051 | 36779 ft | 469 kts | 162° |
| 2026-05-07 17:10 | 13.06818 | -8.14910 | 36791 ft | 469 kts | 162° |
| 2026-05-07 17:11 | 13.00821 | -8.12380 | 36787 ft | 469 kts | 162° |
| 2026-05-07 17:11 | 12.94779 | -8.09838 | 36782 ft | 469 kts | 161° |
| 2026-05-07 17:12 | 12.88731 | -8.07298 | 36800 ft | 470 kts | 161° |
| 2026-05-07 17:12 | 12.82652 | -8.04726 | 36807 ft | 470 kts | 161° |
| 2026-05-07 17:13 | 12.76652 | -8.02199 | 36811 ft | 469 kts | 161° |
| 2026-05-07 17:13 | 12.70605 | -7.99662 | 36813 ft | 470 kts | 161° |
| 2026-05-07 17:14 | 12.64556 | -7.97130 | 36807 ft | 470 kts | 161° |
| 2026-05-07 17:14 | 12.58476 | -7.94565 | 36811 ft | 470 kts | 159° |
| 2026-05-07 17:15 | 12.52983 | -7.90946 | 36813 ft | 478 kts | 140° |
| 2026-05-07 17:15 | 12.48412 | -7.85960 | 36812 ft | 481 kts | 135° |
| 2026-05-07 17:16 | 12.43904 | -7.80905 | 36816 ft | 481 kts | 135° |
| 2026-05-07 17:16 | 12.39351 | -7.75828 | 36821 ft | 481 kts | 135° |
| 2026-05-07 17:17 | 12.34824 | -7.70774 | 36826 ft | 481 kts | 135° |
| 2026-05-07 17:17 | 12.30301 | -7.65722 | 36829 ft | 481 kts | 135° |
| 2026-05-07 17:18 | 12.25783 | -7.60673 | 36829 ft | 481 kts | 135° |
| 2026-05-07 17:18 | 12.21259 | -7.55620 | 36824 ft | 481 kts | 135° |
| 2026-05-07 17:19 | 12.16733 | -7.50575 | 36828 ft | 481 kts | 135° |
| 2026-05-07 17:19 | 12.12209 | -7.45534 | 36828 ft | 481 kts | 135° |
| 2026-05-07 17:20 | 12.07677 | -7.40494 | 36823 ft | 481 kts | 135° |
| 2026-05-07 17:20 | 12.03148 | -7.35454 | 36823 ft | 481 kts | 135° |
| 2026-05-07 17:21 | 11.98627 | -7.30417 | 36822 ft | 481 kts | 135° |
| 2026-05-07 17:21 | 11.94100 | -7.25375 | 36814 ft | 481 kts | 134° |
| 2026-05-07 17:22 | 11.89572 | -7.20344 | 36813 ft | 481 kts | 134° |
| 2026-05-07 17:22 | 11.85053 | -7.15327 | 36817 ft | 480 kts | 134° |
| 2026-05-07 17:23 | 11.80537 | -7.10302 | 36818 ft | 480 kts | 134° |
| 2026-05-07 17:23 | 11.76019 | -7.05282 | 36816 ft | 480 kts | 134° |
| 2026-05-07 17:24 | 11.71495 | -7.00269 | 36816 ft | 480 kts | 134° |
| 2026-05-07 17:24 | 11.66976 | -6.95262 | 36815 ft | 480 kts | 134° |
| 2026-05-07 17:25 | 11.62458 | -6.90255 | 36816 ft | 479 kts | 134° |
| 2026-05-07 17:25 | 11.57944 | -6.85250 | 36812 ft | 479 kts | 134° |
| 2026-05-07 17:26 | 11.53431 | -6.80258 | 36820 ft | 478 kts | 134° |
| 2026-05-07 17:26 | 11.48924 | -6.75278 | 36824 ft | 477 kts | 134° |
| 2026-05-07 17:27 | 11.44425 | -6.70303 | 36823 ft | 477 kts | 134° |
| 2026-05-07 17:27 | 11.39932 | -6.65331 | 36819 ft | 476 kts | 134° |
| 2026-05-07 17:28 | 11.35440 | -6.60370 | 36819 ft | 476 kts | 134° |
| 2026-05-07 17:28 | 11.30946 | -6.55411 | 36816 ft | 476 kts | 134° |
| 2026-05-07 17:29 | 11.26464 | -6.50458 | 36813 ft | 475 kts | 134° |
| 2026-05-07 17:29 | 11.21980 | -6.45506 | 36800 ft | 475 kts | 134° |
| 2026-05-07 17:30 | 11.17500 | -6.40563 | 36803 ft | 474 kts | 134° |
| 2026-05-07 17:30 | 11.13026 | -6.35628 | 36804 ft | 474 kts | 134° |
| 2026-05-07 17:31 | 11.08557 | -6.30702 | 36807 ft | 474 kts | 134° |
| 2026-05-07 17:31 | 11.04071 | -6.25776 | 36806 ft | 474 kts | 134° |
| 2026-05-07 17:32 | 10.99593 | -6.20855 | 36806 ft | 474 kts | 134° |
| 2026-05-07 17:32 | 10.95864 | -6.16760 | 36806 ft | 474 kts | 134° |
| 2026-05-07 17:33 | 10.90630 | -6.11005 | 36803 ft | 474 kts | 134° |
| 2026-05-07 17:33 | 10.86153 | -6.06078 | 36808 ft | 474 kts | 133° |
| 2026-05-07 17:34 | 10.81681 | -6.01163 | 36809 ft | 473 kts | 134° |
| 2026-05-07 17:34 | 10.77201 | -5.96252 | 36814 ft | 473 kts | 133° |
| 2026-05-07 17:35 | 10.72728 | -5.91334 | 36812 ft | 473 kts | 134° |
| 2026-05-07 17:35 | 10.68257 | -5.86421 | 36813 ft | 473 kts | 133° |
| 2026-05-07 17:36 | 10.63787 | -5.81509 | 36813 ft | 473 kts | 134° |
| 2026-05-07 17:36 | 10.59310 | -5.76611 | 36817 ft | 473 kts | 134° |
| 2026-05-07 17:37 | 10.54839 | -5.71719 | 36816 ft | 473 kts | 134° |
| 2026-05-07 17:37 | 10.50368 | -5.66826 | 36820 ft | 471 kts | 134° |
| 2026-05-07 17:38 | 10.45914 | -5.61948 | 36839 ft | 469 kts | 134° |
| 2026-05-07 17:38 | 10.41488 | -5.57095 | 36839 ft | 468 kts | 134° |
| 2026-05-07 17:39 | 10.37069 | -5.52257 | 36837 ft | 467 kts | 134° |
| 2026-05-07 17:39 | 10.32655 | -5.47428 | 36831 ft | 466 kts | 134° |
| 2026-05-07 17:40 | 10.28248 | -5.42604 | 36830 ft | 466 kts | 134° |
| 2026-05-07 17:40 | 10.23811 | -5.37754 | 36825 ft | 465 kts | 134° |
| 2026-05-07 17:41 | 10.19404 | -5.32948 | 36825 ft | 465 kts | 134° |
| 2026-05-07 17:41 | 10.14997 | -5.28138 | 36829 ft | 465 kts | 133° |
| 2026-05-07 17:42 | 10.10627 | -5.23361 | 36822 ft | 465 kts | 134° |
| 2026-05-07 17:42 | 10.06201 | -5.18523 | 36823 ft | 465 kts | 134° |
| 2026-05-07 17:43 | 10.01798 | -5.13723 | 36817 ft | 465 kts | 134° |
| 2026-05-07 17:43 | 9.97382 | -5.08919 | 36818 ft | 465 kts | 134° |
| 2026-05-07 17:44 | 9.92975 | -5.04120 | 36822 ft | 465 kts | 133° |
| 2026-05-07 17:44 | 9.88566 | -4.99317 | 36823 ft | 465 kts | 134° |
| 2026-05-07 17:45 | 9.84146 | -4.94513 | 36827 ft | 465 kts | 134° |
| 2026-05-07 17:45 | 9.79736 | -4.89717 | 36851 ft | 464 kts | 134° |
| 2026-05-07 17:46 | 9.75332 | -4.84920 | 36807 ft | 466 kts | 134° |
| 2026-05-07 17:46 | 9.71655 | -4.80913 | 36799 ft | 467 kts | 134° |
| 2026-05-07 17:47 | 9.67208 | -4.76086 | 36800 ft | 469 kts | 134° |
| 2026-05-07 17:47 | 9.62755 | -4.71257 | 36805 ft | 469 kts | 134° |
| 2026-05-07 17:48 | 9.58298 | -4.66412 | 36808 ft | 470 kts | 134° |
| 2026-05-07 17:48 | 9.53834 | -4.61565 | 36813 ft | 471 kts | 134° |
| 2026-05-07 17:49 | 9.49363 | -4.56723 | 36815 ft | 471 kts | 134° |
| 2026-05-07 17:49 | 9.44903 | -4.51882 | 36840 ft | 469 kts | 134° |
| 2026-05-07 17:50 | 9.40467 | -4.47068 | 36833 ft | 467 kts | 134° |
| 2026-05-07 17:50 | 9.36022 | -4.42256 | 36829 ft | 468 kts | 134° |
| 2026-05-07 17:51 | 9.31576 | -4.37442 | 36826 ft | 468 kts | 134° |
| 2026-05-07 17:51 | 9.27127 | -4.32627 | 36826 ft | 468 kts | 134° |
| 2026-05-07 17:52 | 9.22674 | -4.27808 | 36826 ft | 468 kts | 134° |
| 2026-05-07 17:52 | 9.18224 | -4.22994 | 36826 ft | 468 kts | 134° |
| 2026-05-07 17:53 | 9.13776 | -4.18186 | 36827 ft | 468 kts | 134° |
| 2026-05-07 17:53 | 9.09320 | -4.13377 | 36827 ft | 468 kts | 134° |
| 2026-05-07 17:54 | 9.04866 | -4.08570 | 36827 ft | 468 kts | 134° |
| 2026-05-07 17:54 | 9.00411 | -4.03758 | 36830 ft | 468 kts | 134° |
| 2026-05-07 17:55 | 8.95966 | -3.98948 | 36832 ft | 468 kts | 134° |
| 2026-05-07 17:55 | 8.91525 | -3.94154 | 36830 ft | 467 kts | 134° |
| 2026-05-07 17:56 | 8.87073 | -3.89354 | 36823 ft | 467 kts | 134° |
| 2026-05-07 17:56 | 8.82634 | -3.84560 | 36823 ft | 467 kts | 134° |
| 2026-05-07 17:57 | 8.78937 | -3.80575 | 36816 ft | 467 kts | 134° |
| 2026-05-07 17:57 | 8.73724 | -3.74972 | 36814 ft | 468 kts | 134° |
| 2026-05-07 17:58 | 8.69269 | -3.70167 | 36814 ft | 469 kts | 133° |
| 2026-05-07 17:58 | 8.64808 | -3.65352 | 36815 ft | 469 kts | 133° |
| 2026-05-07 17:59 | 8.60339 | -3.60540 | 36821 ft | 470 kts | 133° |
| 2026-05-07 17:59 | 8.55864 | -3.55727 | 36822 ft | 470 kts | 133° |
| 2026-05-07 18:00 | 8.51386 | -3.50916 | 36827 ft | 470 kts | 133° |
| 2026-05-07 18:00 | 8.46910 | -3.46097 | 36835 ft | 470 kts | 133° |
| 2026-05-07 18:01 | 8.42435 | -3.41278 | 36832 ft | 471 kts | 133° |
| 2026-05-07 18:01 | 8.37945 | -3.36460 | 36836 ft | 471 kts | 133° |
| 2026-05-07 18:02 | 8.31220 | -3.29246 | 36848 ft | 470 kts | 133° |
| 2026-05-07 18:03 | 8.26737 | -3.24427 | 36849 ft | 470 kts | 133° |
| 2026-05-07 18:03 | 8.22263 | -3.19622 | 36855 ft | 470 kts | 133° |
| 2026-05-07 18:04 | 8.17785 | -3.14824 | 36857 ft | 470 kts | 133° |
| 2026-05-07 18:04 | 8.13305 | -3.10016 | 36854 ft | 470 kts | 133° |
| 2026-05-07 18:05 | 8.08829 | -3.05213 | 36854 ft | 470 kts | 133° |
| 2026-05-07 18:05 | 8.04339 | -3.00408 | 36852 ft | 471 kts | 133° |
| 2026-05-07 18:06 | 7.99835 | -2.95617 | 36858 ft | 471 kts | 133° |
| 2026-05-07 18:06 | 7.95276 | -2.90867 | 36860 ft | 471 kts | 133° |
| 2026-05-07 18:07 | 7.90711 | -2.86128 | 36862 ft | 471 kts | 133° |
| 2026-05-07 18:07 | 7.86157 | -2.81377 | 36868 ft | 471 kts | 133° |
| 2026-05-07 18:08 | 7.81621 | -2.76598 | 36871 ft | 472 kts | 132° |
| 2026-05-07 18:08 | 7.77127 | -2.71773 | 36874 ft | 472 kts | 132° |
| 2026-05-07 18:09 | 7.72644 | -2.66949 | 36878 ft | 471 kts | 132° |
| 2026-05-07 18:09 | 7.68141 | -2.62141 | 36874 ft | 471 kts | 133° |
| 2026-05-07 18:10 | 7.63635 | -2.57346 | 36874 ft | 471 kts | 133° |
| 2026-05-07 18:10 | 7.59127 | -2.52548 | 36873 ft | 471 kts | 132° |
| 2026-05-07 18:11 | 7.54634 | -2.47742 | 36880 ft | 471 kts | 132° |
| 2026-05-07 18:11 | 7.50137 | -2.42937 | 36879 ft | 471 kts | 132° |
| 2026-05-07 18:12 | 7.45630 | -2.38129 | 36882 ft | 472 kts | 132° |
| 2026-05-07 18:12 | 7.41117 | -2.33318 | 36884 ft | 472 kts | 132° |
| 2026-05-07 18:13 | 7.36609 | -2.28511 | 36883 ft | 472 kts | 132° |
| 2026-05-07 18:13 | 7.32087 | -2.23730 | 36894 ft | 471 kts | 132° |
| 2026-05-07 18:14 | 7.27566 | -2.18961 | 36900 ft | 471 kts | 132° |
| 2026-05-07 18:14 | 7.23051 | -2.14190 | 36900 ft | 470 kts | 132° |
| 2026-05-07 18:15 | 7.18543 | -2.09415 | 36903 ft | 470 kts | 132° |
| 2026-05-07 18:15 | 7.14034 | -2.04654 | 36902 ft | 470 kts | 132° |
| 2026-05-07 18:16 | 7.09525 | -1.99890 | 36906 ft | 470 kts | 132° |
| 2026-05-07 18:16 | 7.05021 | -1.95123 | 36909 ft | 470 kts | 132° |
| 2026-05-07 18:17 | 7.00510 | -1.90362 | 36909 ft | 470 kts | 133° |
| 2026-05-07 18:17 | 6.96003 | -1.85603 | 36918 ft | 469 kts | 133° |
| 2026-05-07 18:18 | 6.91503 | -1.80848 | 36918 ft | 469 kts | 133° |
| 2026-05-07 18:18 | 6.86973 | -1.76065 | 36914 ft | 469 kts | 133° |
| 2026-05-07 18:19 | 6.82507 | -1.71347 | 36915 ft | 468 kts | 132° |
| 2026-05-07 18:19 | 6.77977 | -1.66579 | 36913 ft | 468 kts | 132° |
| 2026-05-07 18:20 | 6.73494 | -1.61849 | 36714 ft | 467 kts | 132° |
| 2026-05-07 18:20 | 6.71258 | -1.59474 | 36245 ft | 466 kts | 130° |
| 2026-05-07 18:20 | 6.69249 | -1.56928 | 35758 ft | 465 kts | 126° |
| 2026-05-07 18:20 | 6.67303 | -1.54325 | 35296 ft | 465 kts | 126° |
| 2026-05-07 18:21 | 6.65355 | -1.51724 | 34830 ft | 466 kts | 126° |
| 2026-05-07 18:21 | 6.63400 | -1.49118 | 34377 ft | 467 kts | 126° |
| 2026-05-07 18:21 | 6.61435 | -1.46502 | 33930 ft | 468 kts | 126° |
| 2026-05-07 18:21 | 6.59470 | -1.43883 | 33429 ft | 469 kts | 126° |
| 2026-05-07 18:22 | 6.57505 | -1.41264 | 32924 ft | 470 kts | 126° |
| 2026-05-07 18:22 | 6.56865 | -1.40412 | 32764 ft | 468 kts | 126° |
| 2026-05-07 18:22 | 6.53604 | -1.36067 | 31954 ft | 460 kts | 126° |
| 2026-05-07 18:22 | 6.51685 | -1.33512 | 31481 ft | 456 kts | 126° |
| 2026-05-07 18:23 | 6.49787 | -1.30983 | 31017 ft | 451 kts | 126° |
| 2026-05-07 18:23 | 6.47907 | -1.28477 | 30560 ft | 446 kts | 126° |
| 2026-05-07 18:23 | 6.46057 | -1.25990 | 30113 ft | 441 kts | 124° |
| 2026-05-07 18:23 | 6.44552 | -1.23329 | 29610 ft | 436 kts | 117° |
| 2026-05-07 18:24 | 6.43164 | -1.20640 | 29083 ft | 432 kts | 117° |
| 2026-05-07 18:24 | 6.41789 | -1.17969 | 28569 ft | 428 kts | 116° |
| 2026-05-07 18:24 | 6.40888 | -1.16217 | 28235 ft | 425 kts | 116° |
| 2026-05-07 18:24 | 6.39536 | -1.13586 | 27732 ft | 421 kts | 116° |
| 2026-05-07 18:25 | 6.38200 | -1.10984 | 27241 ft | 417 kts | 116° |
| 2026-05-07 18:25 | 6.36879 | -1.08407 | 26760 ft | 413 kts | 116° |
| 2026-05-07 18:25 | 6.35566 | -1.05851 | 26286 ft | 409 kts | 116° |
| 2026-05-07 18:25 | 6.34265 | -1.03321 | 25822 ft | 406 kts | 116° |
| 2026-05-07 18:26 | 6.32975 | -1.00810 | 25362 ft | 403 kts | 116° |
| 2026-05-07 18:26 | 6.31695 | -0.98315 | 24915 ft | 400 kts | 116° |
| 2026-05-07 18:26 | 6.30423 | -0.95839 | 24466 ft | 397 kts | 116° |
| 2026-05-07 18:26 | 6.29161 | -0.93381 | 24029 ft | 395 kts | 116° |
| 2026-05-07 18:27 | 6.27902 | -0.90943 | 23603 ft | 392 kts | 117° |
| 2026-05-07 18:27 | 6.26639 | -0.88520 | 23116 ft | 390 kts | 117° |
| 2026-05-07 18:27 | 6.25377 | -0.86111 | 22603 ft | 388 kts | 117° |
| 2026-05-07 18:27 | 6.24124 | -0.83721 | 22101 ft | 385 kts | 117° |
| 2026-05-07 18:28 | 6.22879 | -0.81343 | 21575 ft | 384 kts | 117° |
| 2026-05-07 18:28 | 6.21640 | -0.78972 | 21039 ft | 382 kts | 117° |
| 2026-05-07 18:28 | 6.20410 | -0.76612 | 20514 ft | 380 kts | 116° |
| 2026-05-07 18:28 | 6.19187 | -0.74264 | 20014 ft | 378 kts | 116° |
| 2026-05-07 18:29 | 6.17973 | -0.71934 | 19500 ft | 376 kts | 116° |
| 2026-05-07 18:29 | 6.16765 | -0.69615 | 19005 ft | 373 kts | 116° |
| 2026-05-07 18:29 | 6.15565 | -0.67311 | 18516 ft | 370 kts | 116° |
| 2026-05-07 18:29 | 6.14372 | -0.65027 | 18008 ft | 367 kts | 116° |
| 2026-05-07 18:30 | 6.13176 | -0.62734 | 17442 ft | 365 kts | 116° |
| 2026-05-07 18:30 | 6.12006 | -0.60489 | 16887 ft | 359 kts | 116° |
| 2026-05-07 18:30 | 6.10860 | -0.58292 | 16348 ft | 351 kts | 116° |
| 2026-05-07 18:30 | 6.09741 | -0.56148 | 15819 ft | 343 kts | 116° |
| 2026-05-07 18:31 | 6.08643 | -0.54045 | 15296 ft | 336 kts | 116° |
| 2026-05-07 18:31 | 6.07569 | -0.51994 | 14781 ft | 329 kts | 116° |
| 2026-05-07 18:31 | 6.06516 | -0.49984 | 14284 ft | 322 kts | 116° |
| 2026-05-07 18:31 | 6.05484 | -0.48014 | 13791 ft | 315 kts | 116° |
| 2026-05-07 18:32 | 6.04474 | -0.46085 | 13242 ft | 309 kts | 115° |
| 2026-05-07 18:32 | 6.03483 | -0.44186 | 12688 ft | 304 kts | 115° |
| 2026-05-07 18:32 | 6.02512 | -0.42321 | 12187 ft | 299 kts | 115° |
| 2026-05-07 18:32 | 6.01560 | -0.40494 | 11742 ft | 292 kts | 115° |
| 2026-05-07 18:33 | 6.00627 | -0.38707 | 11314 ft | 286 kts | 115° |
| 2026-05-07 18:33 | 5.99709 | -0.36953 | 10891 ft | 281 kts | 115° |
| 2026-05-07 18:33 | 5.98805 | -0.35227 | 10549 ft | 279 kts | 115° |
| 2026-05-07 18:33 | 5.97904 | -0.33505 | 10242 ft | 276 kts | 115° |
| 2026-05-07 18:34 | 5.97025 | -0.31821 | 10020 ft | 270 kts | 115° |
| 2026-05-07 18:34 | 5.96158 | -0.30156 | 9709 ft | 268 kts | 115° |
| 2026-05-07 18:34 | 5.95294 | -0.28497 | 9318 ft | 269 kts | 115° |
| 2026-05-07 18:34 | 5.94428 | -0.26838 | 8919 ft | 269 kts | 115° |
| 2026-05-07 18:35 | 5.93556 | -0.25173 | 8515 ft | 269 kts | 115° |
| 2026-05-07 18:35 | 5.92684 | -0.23506 | 8124 ft | 270 kts | 116° |
| 2026-05-07 18:35 | 5.91812 | -0.21834 | 7740 ft | 270 kts | 116° |
| 2026-05-07 18:35 | 5.90939 | -0.20163 | 7361 ft | 270 kts | 116° |
| 2026-05-07 18:36 | 5.90063 | -0.18489 | 6984 ft | 271 kts | 116° |
| 2026-05-07 18:36 | 5.89186 | -0.16812 | 6614 ft | 272 kts | 117° |
| 2026-05-07 18:36 | 5.88307 | -0.15130 | 6235 ft | 273 kts | 117° |
| 2026-05-07 18:36 | 5.87551 | -0.13382 | 5850 ft | 274 kts | 109° |
| 2026-05-07 18:37 | 5.86866 | -0.11593 | 5463 ft | 274 kts | 112° |
| 2026-05-07 18:37 | 5.86132 | -0.09823 | 5079 ft | 275 kts | 114° |
| 2026-05-07 18:37 | 5.85093 | -0.08232 | 4728 ft | 273 kts | 141° |
| 2026-05-07 18:37 | 5.83403 | -0.07516 | 4529 ft | 264 kts | 176° |
| 2026-05-07 18:38 | 5.81644 | -0.07878 | 4256 ft | 260 kts | 204° |
| 2026-05-07 18:38 | 5.80015 | -0.08658 | 3928 ft | 258 kts | 205° |
| 2026-05-07 18:38 | 5.78396 | -0.09371 | 3601 ft | 247 kts | 203° |
| 2026-05-07 18:38 | 5.76851 | -0.10006 | 3297 ft | 234 kts | 203° |
| 2026-05-07 18:39 | 5.75382 | -0.10607 | 3011 ft | 221 kts | 202° |
| 2026-05-07 18:39 | 5.74005 | -0.11173 | 2733 ft | 207 kts | 203° |
| 2026-05-07 18:39 | 5.72728 | -0.11698 | 2486 ft | 191 kts | 203° |
| 2026-05-07 18:39 | 5.71532 | -0.12190 | 2248 ft | 174 kts | 203° |
| 2026-05-07 18:40 | 5.70505 | -0.12612 | 2029 ft | 147 kts | 204° |
| 2026-05-07 18:40 | 5.69608 | -0.12981 | 1843 ft | 135 kts | 204° |
| 2026-05-07 18:40 | 5.68746 | -0.13336 | 1683 ft | 132 kts | 204° |
| 2026-05-07 18:40 | 5.67907 | -0.13686 | 1534 ft | 128 kts | 205° |
| 2026-05-07 18:41 | 5.67077 | -0.14032 | 1351 ft | 130 kts | 204° |
| 2026-05-07 18:41 | 5.66243 | -0.14376 | 1164 ft | 129 kts | 204° |
| 2026-05-07 18:41 | 5.65416 | -0.14712 | 992 ft | 129 kts | 202° |
| 2026-05-07 18:41 | 5.64583 | -0.15055 | 848 ft | 133 kts | 204° |
| 2026-05-07 18:42 | 5.63728 | -0.15415 | 683 ft | 132 kts | 202° |
| 2026-05-07 18:42 | 5.62875 | -0.15763 | 518 ft | 134 kts | 201° |
| 2026-05-07 18:42 | 5.62016 | -0.16108 | 334 ft | 131 kts | 201° |
| 2026-05-07 18:42 | 5.61207 | -0.16442 | 208 ft | 113 kts | 202° |
| 2026-05-07 18:43 | 5.60597 | -0.16688 | 209 ft | 74 kts | 202° |
| 2026-05-07 18:43 | 5.60173 | -0.16864 | 216 ft | 64 kts | 202° |
| 2026-05-07 18:43 | 5.59926 | -0.16982 | 212 ft | 23 kts | 229° |
| 2026-05-07 18:43 | 5.59865 | -0.17086 | 212 ft | 17 kts | 242° |
| 2026-05-07 18:44 | 5.59820 | -0.17170 | 208 ft | 11 kts | 233° |
| 2026-05-07 18:44 | 5.59782 | -0.17235 | 209 ft | 9 kts | 262° |
| 2026-05-07 18:44 | 5.59796 | -0.17284 | 214 ft | 7 kts | 291° |
| 2026-05-07 18:44 | 5.59812 | -0.17323 | 208 ft | 5 kts | 292° |
| 2026-05-07 18:45 | 5.59823 | -0.17349 | 209 ft | 3 kts | 293° |
| 2026-05-07 18:45 | 5.59826 | -0.17357 | 213 ft | 0 kts | 293° |